Terminal Aerodrome Forecast
Issued by NWS

Home | Current Version | Previous Version | Text Only | Print | Product List | Glossary On
Versions: 1 2 3 4 5 6 7 8 9 10 11 12 13 14 15 16
000
FTUS43 KDVN 012300
TAFBRL
TAF
KBRL 012320Z 0200/0224 02008KT P6SM VCSH BKN050
     FM020200 00000KT P6SM SCT060
      TEMPO 0202/0204 4SM HZ
     FM020900 00000KT 5SM BR SKC
      TEMPO 0209/0212 3SM BR
     FM021500 03004KT P6SM SCT050=

USA.gov is the U.S. government's official web portal to all federal, state and local government web resources and services.